createdAt,value
2019-04-20T00:00:14.647Z,7.10
2019-04-20T00:01:19.977Z,7.10
2019-04-20T00:02:17.735Z,6.80
2019-04-20T00:03:15.785Z,7.00
2019-04-20T00:04:20.575Z,7.50
2019-04-20T00:05:15.050Z,6.80
2019-04-20T00:06:15.268Z,6.60
2019-04-20T00:07:14.593Z,7.50
2019-04-20T00:08:20.129Z,7.10
2019-04-20T00:09:20.568Z,7.00
2019-04-20T00:10:18.522Z,7.10
2019-04-20T00:11:23.195Z,6.80
2019-04-20T00:12:20.250Z,7.00
2019-04-20T00:13:24.048Z,7.00
2019-04-20T00:14:19.028Z,6.80
2019-04-20T00:15:15.588Z,7.20
2019-04-20T00:16:14.771Z,7.10
2019-04-20T00:17:15.820Z,7.00
2019-04-20T00:18:15.158Z,7.00
2019-04-20T00:19:22.564Z,6.80
2019-04-20T00:20:20.755Z,7.30
2019-04-20T00:21:16.431Z,7.50
2019-04-20T00:22:15.635Z,7.00
2019-04-20T00:23:19.859Z,6.90
2019-04-20T00:24:21.099Z,7.00
2019-04-20T00:25:20.065Z,7.20
2019-04-20T00:26:22.116Z,7.50
2019-04-20T00:27:40.403Z,7.30
2019-04-20T00:28:34.285Z,6.80
2019-04-20T00:29:29.445Z,7.10
2019-04-20T00:30:32.536Z,7.00
2019-04-20T00:31:29.678Z,7.30
2019-04-20T00:32:23.253Z,6.80
2019-04-20T00:33:28.366Z,7.10
2019-04-20T00:34:24.152Z,6.30
2019-04-20T00:35:14.743Z,7.20
2019-04-20T00:36:14.301Z,7.20
2019-04-20T00:37:15.057Z,6.80
2019-04-20T00:38:14.247Z,7.20
2019-04-20T00:39:15.463Z,7.30
2019-04-20T00:40:15.072Z,7.10
2019-04-20T00:41:17.074Z,7.00
2019-04-20T00:42:15.960Z,7.10
2019-04-20T00:43:22.122Z,7.20
2019-04-20T00:44:21.927Z,6.60
2019-04-20T00:45:20.279Z,6.70
2019-04-20T00:46:23.170Z,6.90
2019-04-20T00:47:27.490Z,7.20
2019-04-20T00:48:22.591Z,6.80
2019-04-20T00:49:30.504Z,7.30
2019-04-20T00:50:28.341Z,7.30
2019-04-20T00:51:35.336Z,7.20
2019-04-20T00:52:47.017Z,7.60
2019-04-20T00:53:23.826Z,6.80
2019-04-20T00:54:14.057Z,6.90
2019-04-20T00:55:14.952Z,7.50
2019-04-20T00:56:14.158Z,7.40
2019-04-20T00:57:24.791Z,6.70
2019-04-20T00:58:20.099Z,7.40
2019-04-20T00:59:25.363Z,7.60
2019-04-20T01:00:31.062Z,7.50
2019-04-20T01:01:37.514Z,7.20
2019-04-20T01:02:27.529Z,7.40
2019-04-20T01:04:44.957Z,5.90
2019-04-20T01:05:46.427Z,7.00
2019-04-20T01:06:41.190Z,7.00
2019-04-20T01:07:32.796Z,7.20
2019-04-20T01:08:25.404Z,6.90
2019-04-20T01:09:24.625Z,7.00
2019-04-20T01:10:28.398Z,7.90
2019-04-20T01:11:30.908Z,7.60
2019-04-20T01:12:28.001Z,7.40
2019-04-20T01:13:26.668Z,7.10
2019-04-20T01:14:35.819Z,7.60
2019-04-20T01:15:36.933Z,7.20
2019-04-20T01:16:35.947Z,7.20
2019-04-20T01:17:24.010Z,7.70
2019-04-20T01:18:24.002Z,7.50
2019-04-20T01:19:23.980Z,7.40
2019-04-20T01:20:26.403Z,7.90
2019-04-20T01:21:27.150Z,7.50
2019-04-20T01:22:27.299Z,7.70
2019-04-20T01:23:31.200Z,7.80
2019-04-20T01:24:30.893Z,7.50
2019-04-20T01:25:30.093Z,8.00
2019-04-20T01:26:24.876Z,7.70
2019-04-20T01:27:39.007Z,7.50
2019-04-20T01:28:39.798Z,7.90
2019-04-20T01:29:32.376Z,7.70
2019-04-20T01:30:32.272Z,7.70
2019-04-20T01:31:33.983Z,7.60
2019-04-20T01:32:35.682Z,7.40
2019-04-20T01:33:38.392Z,7.50
2019-04-20T01:34:39.218Z,7.90
2019-04-20T01:35:40.831Z,7.70
2019-04-20T01:36:42.965Z,7.50
2019-04-20T01:37:35.995Z,7.50
2019-04-20T01:38:40.099Z,7.80
2019-04-20T01:39:32.954Z,7.50
2019-04-20T01:40:23.744Z,8.00
2019-04-20T01:41:24.445Z,7.40
2019-04-20T01:42:23.720Z,8.10
2019-04-20T01:43:24.736Z,7.50
2019-04-20T01:44:30.113Z,8.00
2019-04-20T01:45:30.754Z,8.00
2019-04-20T01:46:26.652Z,8.20
2019-04-20T01:47:30.364Z,8.00
2019-04-20T01:48:28.761Z,8.00
2019-04-20T01:49:28.651Z,8.20
2019-04-20T01:50:27.977Z,8.20
2019-04-20T01:51:28.606Z,8.10
2019-04-20T01:52:29.885Z,8.30
2019-04-20T01:53:41.274Z,8.10
2019-04-20T01:54:38.603Z,7.70
2019-04-20T01:55:44.000Z,8.20
2019-04-20T01:56:36.158Z,8.00
2019-04-20T01:57:29.891Z,8.20
2019-04-20T01:58:42.055Z,7.90
2019-04-20T01:59:34.509Z,8.00
2019-04-20T02:00:29.788Z,8.20
2019-04-20T02:01:28.046Z,8.20
2019-04-20T02:02:26.018Z,7.90
2019-04-20T02:03:31.136Z,7.70
2019-04-20T02:04:27.976Z,8.30
2019-04-20T02:05:30.572Z,8.10
2019-04-20T02:06:25.637Z,7.80
2019-04-20T02:07:28.529Z,8.20
2019-04-20T02:08:27.511Z,8.40
2019-04-20T02:09:27.345Z,8.10
2019-04-20T02:10:31.873Z,8.00
2019-04-20T02:11:29.416Z,8.00
2019-04-20T02:12:28.428Z,8.40
2019-04-20T02:13:26.429Z,8.10
2019-04-20T02:14:32.190Z,8.20
2019-04-20T02:15:32.641Z,8.50
2019-04-20T02:16:31.788Z,8.20
2019-04-20T02:17:34.699Z,7.60
2019-04-20T02:18:36.497Z,8.30
2019-04-20T02:19:37.790Z,7.90
2019-04-20T02:20:44.592Z,7.60
2019-04-20T02:21:40.902Z,8.70
2019-04-20T02:23:33.834Z,8.10
2019-04-20T02:24:23.827Z,8.10
2019-04-20T02:25:23.242Z,8.20
2019-04-20T02:26:23.965Z,8.80
2019-04-20T02:27:31.047Z,8.40
2019-04-20T02:28:51.857Z,8.30
2019-04-20T02:29:48.520Z,8.40
2019-04-20T02:30:57.066Z,9.70
2019-04-20T02:32:08.509Z,8.20
2019-04-20T02:33:01.098Z,8.80
2019-04-20T02:33:58.955Z,8.70
2019-04-20T02:34:57.696Z,8.70
2019-04-20T02:36:04.692Z,9.10
2019-04-20T02:38:03.536Z,9.30
2019-04-20T02:39:15.204Z,9.10
2019-04-20T02:40:01.974Z,9.40
2019-04-20T02:42:57.299Z,8.80
2019-04-20T02:44:06.093Z,8.70
2019-04-20T02:45:05.096Z,9.10
2019-04-20T02:45:52.885Z,8.90
2019-04-20T02:47:53.500Z,9.10
2019-04-20T02:49:07.752Z,9.20
2019-04-20T02:50:03.214Z,9.40
2019-04-20T02:51:02.795Z,9.50
2019-04-20T02:51:52.622Z,9.40
2019-04-20T02:53:05.788Z,9.20
2019-04-20T02:54:12.949Z,9.20
2019-04-20T02:55:03.839Z,9.00
2019-04-20T02:55:55.689Z,8.90
2019-04-20T02:57:00.621Z,9.30
2019-04-20T02:59:14.084Z,9.50
2019-04-20T03:00:44.812Z,9.40
2019-04-20T03:01:45.530Z,9.30
2019-04-20T03:02:38.260Z,9.40
2019-04-20T03:03:33.947Z,9.90
2019-04-20T03:05:42.430Z,9.20
2019-04-20T03:06:53.741Z,9.80
2019-04-20T03:07:54.385Z,9.50
2019-04-20T03:08:58.157Z,9.80
2019-04-20T03:09:54.192Z,10.40
2019-04-20T03:10:52.522Z,10.00
2019-04-20T03:12:04.817Z,9.60
2019-04-20T03:12:55.075Z,9.10
2019-04-20T03:13:54.586Z,9.60
2019-04-20T03:14:50.297Z,9.40
2019-04-20T03:15:54.927Z,9.20
2019-04-20T03:16:54.141Z,9.00
2019-04-20T03:17:57.252Z,9.80
2019-04-20T03:18:51.397Z,9.40
2019-04-20T03:19:51.315Z,9.60
2019-04-20T03:20:53.156Z,9.90
2019-04-20T03:21:58.290Z,9.80
2019-04-20T03:23:18.725Z,9.40
2019-04-20T03:24:03.669Z,9.60
2019-04-20T03:24:55.393Z,10.00
2019-04-20T03:25:55.667Z,9.60
2019-04-20T03:26:55.988Z,9.90
2019-04-20T03:27:47.388Z,10.10
2019-04-20T03:28:50.140Z,9.80
2019-04-20T03:29:52.563Z,9.80
2019-04-20T03:31:36.795Z,10.10
2019-04-20T03:33:20.996Z,10.10
2019-04-20T03:34:15.265Z,10.30
2019-04-20T03:35:12.067Z,9.60
2019-04-20T03:36:07.302Z,10.10
2019-04-20T03:36:59.254Z,10.20
2019-04-20T03:37:55.375Z,9.70
2019-04-20T03:38:47.911Z,9.40
2019-04-20T03:39:47.625Z,9.30
2019-04-20T03:40:47.728Z,9.90
2019-04-20T03:41:39.442Z,10.00
2019-04-20T03:42:33.058Z,10.10
2019-04-20T03:43:32.877Z,10.10
2019-04-20T03:44:35.704Z,9.60
2019-04-20T03:45:41.616Z,10.00
2019-04-20T03:46:41.917Z,9.60
2019-04-20T03:47:43.747Z,9.60
2019-04-20T03:48:48.383Z,9.60
2019-04-20T03:49:55.040Z,9.70
2019-04-20T03:50:51.111Z,9.80
2019-04-20T03:51:53.449Z,9.50
2019-04-20T03:52:58.447Z,10.20
2019-04-20T03:53:50.219Z,10.00
2019-04-20T03:54:43.436Z,10.00
2019-04-20T03:55:51.282Z,10.10
2019-04-20T03:56:49.135Z,9.60
2019-04-20T03:57:52.948Z,10.20
2019-04-20T03:58:47.259Z,9.50
2019-04-20T03:59:56.105Z,10.10
2019-04-20T04:00:50.489Z,9.80
2019-04-20T04:02:25.145Z,9.80
2019-04-20T04:03:01.447Z,9.50
2019-04-20T04:04:03.567Z,9.90
2019-04-20T04:04:52.718Z,10.00
2019-04-20T04:05:48.096Z,10.20
2019-04-20T04:06:39.052Z,10.00
2019-04-20T04:07:41.554Z,10.10
2019-04-20T04:08:38.105Z,10.00
2019-04-20T04:09:39.789Z,10.20
2019-04-20T04:10:52.426Z,9.30
2019-04-20T04:11:48.561Z,9.90
2019-04-20T04:12:37.147Z,9.90
2019-04-20T04:13:33.528Z,9.80
2019-04-20T04:14:32.507Z,10.00
2019-04-20T04:15:36.170Z,9.90
2019-04-20T04:16:37.270Z,9.70
2019-04-20T04:17:38.383Z,9.50
2019-04-20T04:18:38.688Z,9.80
2019-04-20T04:19:36.647Z,10.10
2019-04-20T04:20:38.751Z,9.70
2019-04-20T04:21:49.889Z,9.20
2019-04-20T04:22:50.313Z,9.80
2019-04-20T04:23:49.104Z,10.10
2019-04-20T04:24:52.468Z,9.10
2019-04-20T04:25:48.002Z,10.00
2019-04-20T04:26:49.992Z,9.90
2019-04-20T04:27:51.971Z,9.70
2019-04-20T04:28:47.511Z,9.70
2019-04-20T04:29:51.258Z,9.90
2019-04-20T04:30:53.425Z,9.50
2019-04-20T04:31:59.821Z,9.20
2019-04-20T04:33:20.109Z,9.60
2019-04-20T04:33:57.089Z,9.10
2019-04-20T04:34:48.568Z,9.70
2019-04-20T04:35:48.380Z,9.40
2019-04-20T04:36:56.120Z,9.20
2019-04-20T04:37:48.530Z,9.60
2019-04-20T04:38:53.468Z,9.00
2019-04-20T04:39:56.047Z,9.30
2019-04-20T04:41:04.339Z,9.00
2019-04-20T04:42:05.226Z,9.60
2019-04-20T04:42:53.528Z,9.30
2019-04-20T04:43:49.539Z,9.30
2019-04-20T04:44:43.540Z,9.00
2019-04-20T04:45:33.577Z,9.40
2019-04-20T04:46:33.916Z,9.10
2019-04-20T04:47:32.642Z,9.60
2019-04-20T04:48:36.645Z,10.00
2019-04-20T04:49:36.559Z,8.90
2019-04-20T04:50:33.176Z,9.30
2019-04-20T04:51:42.622Z,9.50
2019-04-20T04:52:44.665Z,9.50
2019-04-20T04:53:46.680Z,9.40
2019-04-20T04:54:43.524Z,9.00
2019-04-20T04:55:41.712Z,9.70
2019-04-20T04:56:32.019Z,9.80
2019-04-20T04:57:32.675Z,10.00
2019-04-20T04:58:31.972Z,9.90
2019-04-20T04:59:31.764Z,9.90
2019-04-20T05:00:34.226Z,9.00
2019-04-20T05:01:33.737Z,9.60
2019-04-20T05:02:40.463Z,9.80
2019-04-20T05:03:58.266Z,9.80
2019-04-20T05:04:57.930Z,9.50
2019-04-20T05:06:53.666Z,10.40
2019-04-20T05:07:54.371Z,9.30
2019-04-20T05:08:47.428Z,9.80
2019-04-20T05:09:42.907Z,10.30
2019-04-20T05:10:41.820Z,9.70
2019-04-20T05:11:42.734Z,10.20
2019-04-20T05:12:42.233Z,9.80
2019-04-20T05:13:48.877Z,9.70
2019-04-20T05:14:53.693Z,9.80
2019-04-20T05:15:52.560Z,9.70
2019-04-20T05:16:58.023Z,9.70
2019-04-20T05:18:01.556Z,9.50
2019-04-20T05:19:03.403Z,10.20
2019-04-20T05:20:08.553Z,9.80
2019-04-20T05:21:04.451Z,9.80
2019-04-20T05:22:03.995Z,9.60
2019-04-20T05:23:02.574Z,9.70
2019-04-20T05:23:59.321Z,10.10
2019-04-20T05:25:02.104Z,9.70
2019-04-20T05:26:10.077Z,9.60
2019-04-20T05:27:03.078Z,9.90
2019-04-20T05:28:01.751Z,9.20
2019-04-20T05:28:51.333Z,9.20
2019-04-20T05:29:42.807Z,9.80
2019-04-20T05:30:46.800Z,9.30
2019-04-20T05:31:49.350Z,10.10
2019-04-20T05:32:52.454Z,10.00
2019-04-20T05:34:08.507Z,9.60
2019-04-20T05:35:07.302Z,10.10
2019-04-20T05:36:03.066Z,9.80
2019-04-20T05:36:56.873Z,10.00
2019-04-20T05:38:07.051Z,9.80
2019-04-20T05:39:13.184Z,10.20
2019-04-20T05:40:04.407Z,9.50
2019-04-20T05:41:04.649Z,9.60
2019-04-20T05:41:58.164Z,9.50
2019-04-20T05:42:59.502Z,9.90
2019-04-20T05:43:57.887Z,9.90
2019-04-20T05:44:58.712Z,10.00
2019-04-20T05:45:55.582Z,10.50
2019-04-20T05:47:01.030Z,10.20
2019-04-20T05:47:59.215Z,9.00
2019-04-20T05:49:03.288Z,10.40
2019-04-20T05:49:56.986Z,9.70
2019-04-20T05:50:57.693Z,10.00
2019-04-20T05:52:04.158Z,10.00
2019-04-20T05:53:07.465Z,10.10
2019-04-20T05:54:05.625Z,10.00
2019-04-20T05:55:02.781Z,9.70
2019-04-20T05:56:01.023Z,10.80
2019-04-20T05:57:05.161Z,10.10
2019-04-20T05:58:04.748Z,10.50
2019-04-20T05:58:59.629Z,10.30
2019-04-20T06:00:20.199Z,10.00
2019-04-20T06:01:06.743Z,9.70
2019-04-20T06:02:05.033Z,10.40
2019-04-20T06:02:57.827Z,10.20
2019-04-20T06:03:58.081Z,10.00
2019-04-20T06:05:05.313Z,9.60
2019-04-20T06:06:05.169Z,10.30
2019-04-20T06:07:04.029Z,10.30
2019-04-20T06:08:00.697Z,9.50
2019-04-20T06:09:06.904Z,10.00
2019-04-20T06:10:09.438Z,9.60
2019-04-20T06:11:02.562Z,10.50
2019-04-20T06:13:00.204Z,10.50
2019-04-20T06:13:50.598Z,10.10
2019-04-20T06:14:55.880Z,10.30
2019-04-20T06:16:02.515Z,10.70
2019-04-20T06:17:01.925Z,10.20
2019-04-20T06:17:59.731Z,10.70
2019-04-20T06:19:06.379Z,10.60
2019-04-20T06:20:05.242Z,10.60
2019-04-20T06:21:00.079Z,10.70
2019-04-20T06:22:03.762Z,11.00
2019-04-20T06:23:08.233Z,10.60
2019-04-20T06:24:02.743Z,11.00
2019-04-20T06:25:14.523Z,10.80
2019-04-20T06:26:13.411Z,10.30
2019-04-20T06:27:04.771Z,10.80
2019-04-20T06:28:02.330Z,10.40
2019-04-20T06:28:55.271Z,10.60
2019-04-20T06:29:55.753Z,11.40
2019-04-20T06:30:53.944Z,10.90
2019-04-20T06:32:05.229Z,11.10
2019-04-20T06:33:11.482Z,10.60
2019-04-20T06:35:02.738Z,9.80
2019-04-20T06:36:15.029Z,10.20
2019-04-20T06:37:02.860Z,10.30
2019-04-20T06:38:10.270Z,10.30
2019-04-20T06:40:10.746Z,9.80
2019-04-20T06:41:14.245Z,9.60
2019-04-20T06:43:05.465Z,9.70
2019-04-20T06:44:08.190Z,9.40
2019-04-20T06:45:04.469Z,9.20
2019-04-20T06:46:09.775Z,8.60
2019-04-20T06:47:18.877Z,9.00
2019-04-20T06:48:06.199Z,8.80
2019-04-20T06:49:11.851Z,8.70
2019-04-20T06:50:01.266Z,8.80
2019-04-20T06:50:57.121Z,8.70
2019-04-20T06:52:11.159Z,9.20
2019-04-20T06:53:01.896Z,8.40
2019-04-20T06:53:52.536Z,8.70
2019-04-20T06:55:00.267Z,8.60
2019-04-20T06:56:06.881Z,8.90
2019-04-20T06:57:01.740Z,8.60
2019-04-20T06:58:01.287Z,8.90
2019-04-20T06:59:08.191Z,8.60
2019-04-20T07:00:01.208Z,8.50
2019-04-20T07:01:03.767Z,8.10
2019-04-20T07:02:14.884Z,8.00
2019-04-20T07:02:59.300Z,8.40
2019-04-20T07:04:21.170Z,8.10
2019-04-20T07:04:59.982Z,8.10
2019-04-20T07:06:06.106Z,8.40
2019-04-20T07:08:27.431Z,7.40
2019-04-20T07:09:17.930Z,8.10
2019-04-20T07:11:14.720Z,8.70
2019-04-20T07:12:11.366Z,8.80
2019-04-20T07:13:06.283Z,8.20
2019-04-20T07:13:59.602Z,8.00
2019-04-20T07:15:00.088Z,8.00
2019-04-20T07:16:13.723Z,7.80
2019-04-20T07:17:17.940Z,7.80
2019-04-20T07:18:26.478Z,7.90
2019-04-20T07:19:12.817Z,8.50
2019-04-20T07:20:14.589Z,8.50
2019-04-20T07:21:28.341Z,7.90
2019-04-20T07:22:25.385Z,7.40
2019-04-20T07:24:17.342Z,8.10
2019-04-20T07:25:16.068Z,8.40
2019-04-20T07:26:16.817Z,8.30
2019-04-20T07:27:14.914Z,7.60
2019-04-20T07:28:14.443Z,7.60
2019-04-20T07:29:19.437Z,7.40
2019-04-20T07:30:14.993Z,8.00
2019-04-20T07:31:08.458Z,8.00
2019-04-20T07:32:06.413Z,8.30
2019-04-20T07:33:18.652Z,7.50
2019-04-20T07:34:10.486Z,7.90
2019-04-20T07:35:09.817Z,7.40
2019-04-20T07:36:16.954Z,7.90
2019-04-20T07:37:40.719Z,7.90
2019-04-20T07:39:13.530Z,8.10
2019-04-20T07:40:10.465Z,7.80
2019-04-20T07:41:17.536Z,8.60
2019-04-20T07:42:16.567Z,8.20
2019-04-20T07:43:07.945Z,8.20
2019-04-20T07:44:10.793Z,8.30
2019-04-20T07:45:19.607Z,8.10
2019-04-20T07:46:24.913Z,7.90
2019-04-20T07:47:13.718Z,8.10
2019-04-20T07:49:12.858Z,8.00
2019-04-20T07:50:12.046Z,7.80
2019-04-20T07:51:02.706Z,8.00
2019-04-20T07:51:51.095Z,7.70
2019-04-20T07:53:04.452Z,7.10
2019-04-20T07:54:21.950Z,7.90
2019-04-20T07:55:28.533Z,7.30
2019-04-20T07:56:11.612Z,7.60
2019-04-20T07:57:12.733Z,7.80
2019-04-20T07:58:07.684Z,7.80
2019-04-20T07:58:57.280Z,7.80
2019-04-20T08:00:08.445Z,7.90
2019-04-20T08:01:16.578Z,8.10
2019-04-20T08:02:21.373Z,8.00
2019-04-20T08:03:20.436Z,8.30
2019-04-20T08:04:08.050Z,8.00
2019-04-20T08:05:05.987Z,8.00
2019-04-20T08:06:01.652Z,7.90
2019-04-20T08:06:57.850Z,7.60
2019-04-20T08:08:02.574Z,7.30
2019-04-20T08:09:05.705Z,7.50
2019-04-20T08:09:57.367Z,7.30
2019-04-20T08:11:09.807Z,8.20
2019-04-20T08:12:11.775Z,7.50
2019-04-20T08:13:19.630Z,8.20
2019-04-20T08:14:13.321Z,7.40
2019-04-20T08:15:16.609Z,7.70
2019-04-20T08:16:14.687Z,7.60
2019-04-20T08:18:06.388Z,7.70
2019-04-20T08:19:04.165Z,8.30
2019-04-20T08:20:09.421Z,7.90
2019-04-20T08:21:10.105Z,7.70
2019-04-20T08:22:15.527Z,8.00
2019-04-20T08:23:12.367Z,7.90
2019-04-20T08:24:07.322Z,8.10
2019-04-20T08:25:04.647Z,7.90
2019-04-20T08:26:00.371Z,8.40
2019-04-20T08:26:55.740Z,7.90
2019-04-20T08:27:50.854Z,8.40
2019-04-20T08:28:56.980Z,8.30
2019-04-20T08:30:03.020Z,8.00
2019-04-20T08:31:06.670Z,8.30
2019-04-20T08:32:13.041Z,7.90
2019-04-20T08:33:04.147Z,8.00
2019-04-20T08:34:28.147Z,8.30
2019-04-20T08:35:14.340Z,8.30
2019-04-20T08:36:11.051Z,7.70
2019-04-20T08:37:09.793Z,7.50
2019-04-20T08:38:47.242Z,7.50
2019-04-20T08:39:24.541Z,7.50
2019-04-20T08:40:13.225Z,8.30
2019-04-20T08:41:09.687Z,8.10
2019-04-20T08:42:11.715Z,8.20
2019-04-20T08:43:23.959Z,8.00
2019-04-20T08:45:32.923Z,7.90
2019-04-20T08:46:11.532Z,8.30
2019-04-20T08:47:33.633Z,8.30
2019-04-20T08:48:17.373Z,8.40
2019-04-20T08:49:13.202Z,8.50
2019-04-20T08:50:16.533Z,8.40
2019-04-20T08:51:07.355Z,8.60
2019-04-20T08:52:22.911Z,8.30
2019-04-20T08:53:20.693Z,8.30
2019-04-20T08:54:11.209Z,8.30
2019-04-20T08:55:04.912Z,8.10
2019-04-20T08:56:04.942Z,8.40
2019-04-20T08:56:56.423Z,8.10
2019-04-20T08:57:49.547Z,8.50
2019-04-20T08:58:50.730Z,8.40
2019-04-20T08:59:51.032Z,8.30
2019-04-20T09:00:56.545Z,7.90
2019-04-20T09:01:49.495Z,9.10
2019-04-20T09:02:56.369Z,10.10
2019-04-20T09:04:00.199Z,8.70
2019-04-20T09:04:58.299Z,8.80
2019-04-20T09:05:59.519Z,9.40
2019-04-20T09:07:02.383Z,8.80
2019-04-20T09:09:29.332Z,7.90
2019-04-20T09:10:25.621Z,8.50
2019-04-20T09:11:14.379Z,9.50
2019-04-20T09:12:16.360Z,9.40
2019-04-20T09:13:11.442Z,8.60
2019-04-20T09:14:02.591Z,10.20
2019-04-20T09:14:59.546Z,9.80
2019-04-20T09:15:59.975Z,9.70
2019-04-20T09:17:06.872Z,10.10
2019-04-20T09:18:03.743Z,9.00
2019-04-20T09:19:06.078Z,9.90
2019-04-20T09:20:09.628Z,9.20
2019-04-20T09:21:06.840Z,8.90
2019-04-20T09:22:14.754Z,9.00
2019-04-20T09:23:16.706Z,9.30
2019-04-20T09:24:23.842Z,9.40
2019-04-20T09:25:27.813Z,9.20
2019-04-20T09:26:14.964Z,9.20
2019-04-20T09:27:08.832Z,10.80
2019-04-20T09:28:11.638Z,9.80
2019-04-20T09:29:12.729Z,9.80
2019-04-20T09:30:11.736Z,9.90
2019-04-20T09:31:15.769Z,9.60
2019-04-20T09:32:16.772Z,9.20
2019-04-20T09:33:20.760Z,9.90
2019-04-20T09:34:42.646Z,11.10
2019-04-20T09:35:20.889Z,10.70
2019-04-20T09:36:15.486Z,10.30
2019-04-20T09:37:22.458Z,10.20
2019-04-20T09:38:15.489Z,10.40
2019-04-20T09:39:11.511Z,10.50
2019-04-20T09:40:16.350Z,9.50
2019-04-20T09:41:21.989Z,11.40
2019-04-20T09:42:01.129Z,13.80
2019-04-20T09:43:00.232Z,10.20
2019-04-20T09:44:00.382Z,10.10
2019-04-20T09:45:02.833Z,8.90
2019-04-20T09:46:04.950Z,9.70
2019-04-20T09:47:02.001Z,9.20
2019-04-20T09:48:00.568Z,9.00
2019-04-20T09:49:07.825Z,8.10
2019-04-20T09:50:16.629Z,8.90
2019-04-20T09:51:21.851Z,8.80
2019-04-20T09:52:13.311Z,8.40
2019-04-20T09:53:18.344Z,9.00
2019-04-20T09:54:18.673Z,8.80
2019-04-20T09:55:14.569Z,8.40
2019-04-20T09:56:18.143Z,8.80
2019-04-20T09:57:20.551Z,9.10
2019-04-20T09:58:12.326Z,9.40
2019-04-20T09:59:16.604Z,9.20
2019-04-20T10:00:16.750Z,8.70
2019-04-20T10:01:13.271Z,8.50
2019-04-20T10:02:06.683Z,8.30
2019-04-20T10:03:00.316Z,9.20
2019-04-20T10:03:59.352Z,8.80
2019-04-20T10:04:59.753Z,8.30
2019-04-20T10:05:59.323Z,8.40
2019-04-20T10:07:05.890Z,9.20
2019-04-20T10:08:04.422Z,8.00
2019-04-20T10:09:01.889Z,8.40
2019-04-20T10:09:59.957Z,8.60
2019-04-20T10:10:59.870Z,8.50
2019-04-20T10:11:59.683Z,8.60
2019-04-20T10:12:58.938Z,8.40
2019-04-20T10:13:58.946Z,8.80
2019-04-20T10:15:06.176Z,8.90
2019-04-20T10:15:59.698Z,8.10
2019-04-20T10:17:00.077Z,8.30
2019-04-20T10:17:59.555Z,8.70
2019-04-20T10:18:58.881Z,8.50
2019-04-20T10:20:03.453Z,8.80
2019-04-20T10:20:59.902Z,8.80
2019-04-20T10:21:58.832Z,8.90
2019-04-20T10:22:58.815Z,8.80
2019-04-20T10:23:58.976Z,8.70
2019-04-20T10:24:58.791Z,9.00
2019-04-20T10:25:58.798Z,8.80
2019-04-20T10:26:58.893Z,8.50
2019-04-20T10:27:58.771Z,8.80
2019-04-20T10:28:59.408Z,8.40
2019-04-20T10:30:02.253Z,8.20
2019-04-20T10:30:59.022Z,8.80
2019-04-20T10:32:02.625Z,8.90
2019-04-20T10:32:59.537Z,8.50
2019-04-20T10:33:59.754Z,8.50
2019-04-20T10:34:58.974Z,8.80
2019-04-20T10:35:59.431Z,9.20
2019-04-20T10:36:59.643Z,9.10
2019-04-20T10:37:59.756Z,8.70
2019-04-20T10:38:58.667Z,8.80
2019-04-20T10:39:58.630Z,8.80
2019-04-20T10:41:08.292Z,8.50
2019-04-20T10:42:02.113Z,9.30
2019-04-20T10:43:00.963Z,8.20
2019-04-20T10:43:58.796Z,8.60
2019-04-20T10:45:00.309Z,8.10
2019-04-20T10:45:59.031Z,8.00
2019-04-20T10:46:58.850Z,8.30
2019-04-20T10:47:59.037Z,8.60
2019-04-20T10:49:02.637Z,8.20
2019-04-20T10:49:58.911Z,8.60
2019-04-20T10:50:58.925Z,8.80
2019-04-20T10:51:59.835Z,7.80
2019-04-20T10:52:59.621Z,8.10
2019-04-20T10:53:58.475Z,8.00
2019-04-20T10:54:58.678Z,8.30
2019-04-20T10:55:58.453Z,7.80
2019-04-20T10:56:59.434Z,8.80
2019-04-20T10:57:59.656Z,8.50
2019-04-20T10:58:58.435Z,7.70
2019-04-20T10:59:59.631Z,8.00
2019-04-20T11:00:59.650Z,8.20
2019-04-20T11:01:58.396Z,7.90
2019-04-20T11:02:59.615Z,8.40
2019-04-20T11:03:58.721Z,9.00
2019-04-20T11:04:58.858Z,8.70
2019-04-20T11:05:58.589Z,8.70
2019-04-20T11:06:58.699Z,9.60
2019-04-20T11:07:58.770Z,8.90
2019-04-20T11:10:15.028Z,8.90
2019-04-20T11:11:14.622Z,9.90
2019-04-20T11:12:08.491Z,11.70
2019-04-20T11:13:09.633Z,10.90
2019-04-20T11:14:19.005Z,10.50
2019-04-20T11:15:08.505Z,10.10
2019-04-20T11:16:08.640Z,9.80
2019-04-20T11:17:08.783Z,9.40
2019-04-20T11:18:09.219Z,8.20
2019-04-20T11:19:09.428Z,8.40
2019-04-20T11:20:09.648Z,8.00
2019-04-20T11:21:09.195Z,8.10
2019-04-20T11:22:08.488Z,8.50
2019-04-20T11:23:08.540Z,8.40
2019-04-20T11:24:08.358Z,8.10
2019-04-20T11:25:08.427Z,8.00
2019-04-20T11:26:08.587Z,8.50
2019-04-20T11:27:08.321Z,8.80
2019-04-20T11:28:08.316Z,8.70
2019-04-20T11:29:08.435Z,8.70
2019-04-20T11:30:08.308Z,8.80
2019-04-20T11:31:08.320Z,9.70
2019-04-20T11:32:09.673Z,7.90
2019-04-20T11:33:08.260Z,8.90
2019-04-20T11:34:08.242Z,8.10
2019-04-20T11:35:19.961Z,8.40
2019-04-20T11:36:09.417Z,8.40
2019-04-20T11:37:08.883Z,8.80
2019-04-20T11:38:10.762Z,8.50
2019-04-20T11:39:09.102Z,7.90
2019-04-20T11:40:08.663Z,7.30
2019-04-20T11:41:16.498Z,7.40
2019-04-20T11:42:08.163Z,8.40
2019-04-20T11:43:08.150Z,8.10
2019-04-20T11:44:09.473Z,8.10
2019-04-20T11:45:08.776Z,8.20
2019-04-20T11:46:08.996Z,7.30
2019-04-20T11:47:08.521Z,7.70
2019-04-20T11:48:09.441Z,8.30
2019-04-20T11:49:08.088Z,8.00
2019-04-20T11:50:09.356Z,8.70
2019-04-20T11:51:09.426Z,7.90
2019-04-20T11:52:08.055Z,8.50
2019-04-20T11:53:09.083Z,8.80
2019-04-20T11:54:08.363Z,9.40
2019-04-20T11:55:08.494Z,10.20
2019-04-20T11:56:15.996Z,10.20
2019-04-20T11:57:09.004Z,9.00
2019-04-20T11:58:08.161Z,8.80
2019-04-20T11:59:09.331Z,8.30
2019-04-20T12:00:08.831Z,8.50
2019-04-20T12:01:13.505Z,8.10
2019-04-20T12:02:09.811Z,7.90
2019-04-20T12:03:16.298Z,9.90
2019-04-20T12:04:20.086Z,9.70
2019-04-20T12:05:23.293Z,9.20
2019-04-20T12:06:08.654Z,9.00
2019-04-20T12:07:08.895Z,8.30
2019-04-20T12:08:09.253Z,8.40
2019-04-20T12:09:07.869Z,8.30
2019-04-20T12:10:12.092Z,9.30
2019-04-20T12:11:23.071Z,9.00
2019-04-20T12:12:21.466Z,8.40
2019-04-20T12:13:07.994Z,7.80
2019-04-20T12:14:07.814Z,7.80
2019-04-20T12:15:08.649Z,7.80
2019-04-20T12:16:07.829Z,7.50
2019-04-20T12:17:07.994Z,7.70
2019-04-20T12:18:07.760Z,7.60
2019-04-20T12:19:08.606Z,7.30
2019-04-20T12:20:08.060Z,7.80
2019-04-20T12:21:08.560Z,7.70
2019-04-20T12:22:07.726Z,7.50
2019-04-20T12:23:08.522Z,7.30
2019-04-20T12:24:07.701Z,7.70
2019-04-20T12:25:07.955Z,7.40
2019-04-20T12:26:08.909Z,7.80
2019-04-20T12:27:09.021Z,8.80
2019-04-20T12:28:07.666Z,8.70
2019-04-20T12:29:07.939Z,7.70
2019-04-20T12:30:07.923Z,8.00
2019-04-20T12:31:11.894Z,8.00
2019-04-20T12:32:09.013Z,8.50
2019-04-20T12:33:07.623Z,7.60
2019-04-20T12:34:08.585Z,7.80
2019-04-20T12:35:08.579Z,7.20
2019-04-20T12:36:07.995Z,8.00
2019-04-20T12:37:07.560Z,8.50
2019-04-20T12:38:07.550Z,7.40
2019-04-20T12:39:08.779Z,7.70
2019-04-20T12:40:07.533Z,8.10
2019-04-20T12:41:09.575Z,7.80
2019-04-20T12:42:09.473Z,7.50
2019-04-20T12:43:08.861Z,8.30
2019-04-20T12:44:07.934Z,7.60
2019-04-20T12:45:08.005Z,7.20
2019-04-20T12:46:07.717Z,7.50
2019-04-20T12:47:07.780Z,8.50
2019-04-20T12:48:08.008Z,9.00
2019-04-20T12:49:07.753Z,8.80
2019-04-20T12:50:07.690Z,8.40
2019-04-20T12:51:07.830Z,8.70
2019-04-20T12:52:08.447Z,9.00
2019-04-20T12:53:08.577Z,8.60
2019-04-20T12:54:08.770Z,8.50
2019-04-20T12:55:08.418Z,8.20
2019-04-20T12:56:08.679Z,8.00
2019-04-20T12:57:08.821Z,8.10
2019-04-20T12:58:08.272Z,7.90
2019-04-20T12:59:07.540Z,7.70
2019-04-20T13:00:07.705Z,7.90
2019-04-20T13:01:07.313Z,7.90
2019-04-20T13:02:07.295Z,7.40
2019-04-20T13:03:07.510Z,7.60
2019-04-20T13:04:09.206Z,7.40
2019-04-20T13:05:07.284Z,8.00
2019-04-20T13:06:07.960Z,8.10
2019-04-20T13:07:07.925Z,8.00
2019-04-20T13:08:07.964Z,7.80
2019-04-20T13:09:08.301Z,7.90
2019-04-20T13:11:18.421Z,6.70
2019-04-20T13:12:19.409Z,7.20
2019-04-20T13:13:18.747Z,8.10
2019-04-20T13:14:19.890Z,8.70
2019-04-20T13:15:18.728Z,8.00
2019-04-20T13:16:18.737Z,8.50
2019-04-20T13:17:19.956Z,8.30
2019-04-20T13:18:19.093Z,7.60
2019-04-20T13:19:19.306Z,8.20
2019-04-20T13:20:18.702Z,7.80
2019-04-20T13:21:19.057Z,8.20
2019-04-20T13:22:19.038Z,7.90
2019-04-20T13:23:20.139Z,8.00
2019-04-20T13:24:18.889Z,8.20
2019-04-20T13:25:19.056Z,8.50
2019-04-20T13:26:19.342Z,8.20
2019-04-20T13:27:18.788Z,7.50
2019-04-20T13:28:18.895Z,7.70
2019-04-20T13:29:19.240Z,8.00
2019-04-20T13:30:19.629Z,7.90
2019-04-20T13:31:19.783Z,7.90
2019-04-20T13:32:18.543Z,8.80
2019-04-20T13:33:19.798Z,8.80
2019-04-20T13:34:18.513Z,8.60
2019-04-20T13:35:18.596Z,8.20
2019-04-20T13:36:19.817Z,8.30
2019-04-20T13:37:18.519Z,7.90
2019-04-20T13:38:18.471Z,8.20
2019-04-20T13:39:19.633Z,8.20
2019-04-20T13:40:19.455Z,8.30